createdAt,value
2022-08-12T00:00:44.438Z,23.65
2022-08-12T00:03:34.567Z,23.67
2022-08-12T00:06:23.595Z,23.38
2022-08-12T00:09:13.412Z,23.59
2022-08-12T00:12:02.530Z,23.59
2022-08-12T00:14:52.268Z,23.56
2022-08-12T00:17:40.423Z,23.43
2022-08-12T00:20:30.610Z,23.48
2022-08-12T00:23:26.010Z,23.56
2022-08-12T00:26:23.184Z,23.30
2022-08-12T00:29:13.942Z,23.47
2022-08-12T00:32:05.728Z,23.51
2022-08-12T00:34:55.534Z,23.58
2022-08-12T00:37:45.748Z,23.48
2022-08-12T00:40:36.239Z,23.50
2022-08-12T00:43:12.600Z,23.85
2022-08-12T00:46:03.527Z,23.43
2022-08-12T00:48:35.099Z,23.65
2022-08-12T00:51:07.059Z,23.39
2022-08-12T00:53:39.616Z,23.71
2022-08-12T00:56:11.380Z,24.06
2022-08-12T00:58:51.475Z,24.04
2022-08-12T01:01:24.868Z,23.70
2022-08-12T01:04:17.244Z,23.83
2022-08-12T01:07:06.311Z,23.84
2022-08-12T01:09:57.700Z,23.82
2022-08-12T01:12:27.794Z,23.66
2022-08-12T01:14:58.847Z,23.51
2022-08-12T01:17:30.555Z,23.55
2022-08-12T01:20:05.993Z,23.86
2022-08-12T01:22:42.771Z,23.91
2022-08-12T01:25:19.604Z,23.71
2022-08-12T01:27:50.999Z,23.38
2022-08-12T01:30:21.066Z,23.38
2022-08-12T01:32:50.093Z,23.28
2022-08-12T01:35:22.300Z,23.29
2022-08-12T01:37:58.552Z,23.09
2022-08-12T01:40:37.851Z,23.14
2022-08-12T01:43:10.280Z,23.14
2022-08-12T01:45:53.422Z,23.27
2022-08-12T01:48:35.339Z,23.07
2022-08-12T01:52:04.555Z,23.29
2022-08-12T01:54:09.766Z,23.33
2022-08-12T01:56:51.150Z,23.53
2022-08-12T01:59:50.017Z,23.04
2022-08-12T02:02:24.541Z,23.01
2022-08-12T02:05:33.365Z,22.75
2022-08-12T02:08:37.950Z,22.95
2022-08-12T02:11:18.887Z,22.39
2022-08-12T02:14:07.743Z,22.48
2022-08-12T02:16:57.179Z,22.50
2022-08-12T02:19:28.414Z,22.60
2022-08-12T02:22:18.005Z,22.18
2022-08-12T02:24:51.307Z,22.14
2022-08-12T02:27:22.662Z,22.06
2022-08-12T02:29:55.025Z,22.14
2022-08-12T02:32:25.024Z,22.07
2022-08-12T02:34:53.673Z,22.21
2022-08-12T02:37:23.968Z,22.31
2022-08-12T02:39:56.641Z,22.15
2022-08-12T02:42:25.749Z,22.35
2022-08-12T02:44:56.895Z,22.33
2022-08-12T02:47:58.468Z,22.19
2022-08-12T02:50:14.842Z,21.72
2022-08-12T02:52:44.517Z,21.67
2022-08-12T02:55:33.921Z,21.65
2022-08-12T02:58:12.615Z,21.61
2022-08-12T03:00:45.153Z,21.11
2022-08-12T03:03:14.491Z,21.29
2022-08-12T03:05:59.481Z,21.77
2022-08-12T03:08:33.355Z,21.34
2022-08-12T03:11:14.523Z,21.52
2022-08-12T03:13:58.058Z,21.60
2022-08-12T03:16:33.109Z,21.38
2022-08-12T03:19:01.991Z,21.24
2022-08-12T03:21:52.973Z,21.37
2022-08-12T03:24:24.804Z,20.88
2022-08-12T03:27:00.542Z,21.38
2022-08-12T03:29:31.131Z,21.58
2022-08-12T03:32:05.639Z,21.62
2022-08-12T03:34:35.851Z,21.15
2022-08-12T03:37:21.208Z,21.01
2022-08-12T03:39:50.100Z,21.40
2022-08-12T03:42:30.733Z,21.22
2022-08-12T03:45:51.990Z,20.95
2022-08-12T03:48:41.037Z,20.83
2022-08-12T03:51:29.162Z,21.19
2022-08-12T03:54:16.855Z,21.12
2022-08-12T03:57:04.582Z,20.63
2022-08-12T03:59:52.808Z,20.72
2022-08-12T04:02:21.262Z,20.57
2022-08-12T04:04:51.549Z,20.74
2022-08-12T04:07:19.915Z,20.59
2022-08-12T04:09:48.337Z,20.97
2022-08-12T04:12:36.122Z,21.11
2022-08-12T04:15:05.267Z,20.95
2022-08-12T04:17:34.083Z,20.64
2022-08-12T04:20:02.997Z,20.88
2022-08-12T04:22:31.221Z,20.94
2022-08-12T04:25:02.644Z,20.75
2022-08-12T04:27:32.221Z,20.81
2022-08-12T04:30:17.010Z,20.73
2022-08-12T04:32:54.227Z,20.58
2022-08-12T04:35:24.910Z,20.74
2022-08-12T04:37:58.628Z,20.72
2022-08-12T04:40:33.103Z,21.05
2022-08-12T04:44:00.376Z,21.37
2022-08-12T04:46:07.738Z,21.16
2022-08-12T04:48:36.273Z,21.37
2022-08-12T04:51:08.941Z,21.57
2022-08-12T04:53:37.461Z,21.64
2022-08-12T04:56:25.870Z,22.00
2022-08-12T04:59:15.801Z,22.06
2022-08-12T05:01:59.609Z,21.86
2022-08-12T05:04:52.019Z,21.90
2022-08-12T05:07:53.700Z,22.19
2022-08-12T05:10:36.140Z,22.31
2022-08-12T05:13:39.937Z,22.48
2022-08-12T05:16:39.725Z,22.67
2022-08-12T05:19:22.779Z,22.77
2022-08-12T05:22:14.623Z,22.87
2022-08-12T05:24:54.423Z,22.98
2022-08-12T05:27:58.454Z,23.00
2022-08-12T05:30:46.025Z,23.28
2022-08-12T05:33:17.058Z,23.23
2022-08-12T05:35:47.839Z,23.31
2022-08-12T05:38:38.911Z,23.49
2022-08-12T05:41:20.725Z,23.57
2022-08-12T05:44:17.512Z,23.65
2022-08-12T05:47:02.326Z,23.96
2022-08-12T05:49:56.754Z,24.10
2022-08-12T05:52:36.669Z,24.22
2022-08-12T05:55:20.500Z,24.29
2022-08-12T05:58:14.591Z,24.52
2022-08-12T06:00:47.971Z,24.33
2022-08-12T06:03:42.511Z,24.26
2022-08-12T06:06:17.229Z,24.44
2022-08-12T06:09:11.609Z,24.11
2022-08-12T06:15:07.628Z,24.53
2022-08-12T06:18:11.449Z,24.52
2022-08-12T06:20:57.771Z,24.56
2022-08-12T06:23:51.082Z,24.92
2022-08-12T06:26:30.795Z,24.91
2022-08-12T06:30:07.003Z,24.71
2022-08-12T06:32:08.450Z,24.76
2022-08-12T06:35:25.358Z,25.09
2022-08-12T06:37:51.537Z,25.12
2022-08-12T06:41:16.336Z,25.29
2022-08-12T06:44:05.828Z,25.39
2022-08-12T06:46:38.871Z,25.43
2022-08-12T06:49:10.432Z,25.56
2022-08-12T06:51:39.841Z,25.33
2022-08-12T06:54:35.528Z,25.41
2022-08-12T06:58:08.293Z,25.70
2022-08-12T06:59:44.154Z,25.76
2022-08-12T07:02:51.303Z,25.92
2022-08-12T07:05:32.369Z,25.77
2022-08-12T07:08:27.553Z,25.88
2022-08-12T07:11:03.319Z,26.01
2022-08-12T07:14:02.414Z,25.92
2022-08-12T07:16:49.849Z,25.72
2022-08-12T07:19:19.225Z,26.24
2022-08-12T07:22:00.119Z,26.46
2022-08-12T07:24:33.210Z,26.50
2022-08-12T07:27:01.499Z,26.79
2022-08-12T07:30:03.734Z,26.92
2022-08-12T07:32:18.483Z,26.87
2022-08-12T07:34:47.654Z,26.74
2022-08-12T07:37:17.817Z,26.96
2022-08-12T07:39:49.974Z,26.99
2022-08-12T07:42:19.156Z,27.07
2022-08-12T07:44:51.663Z,27.42
2022-08-12T07:47:20.879Z,27.45
2022-08-12T07:50:04.962Z,27.47
2022-08-12T07:52:36.385Z,27.48
2022-08-12T07:55:06.973Z,27.53
2022-08-12T07:57:53.409Z,27.67
2022-08-12T08:00:27.648Z,27.82
2022-08-12T08:03:03.746Z,27.73
2022-08-12T08:05:39.319Z,27.84
2022-08-12T08:08:19.779Z,27.95
2022-08-12T08:10:48.960Z,28.15
2022-08-12T08:13:18.183Z,28.14
2022-08-12T08:16:02.338Z,28.44
2022-08-12T08:18:33.270Z,28.46
2022-08-12T08:21:01.599Z,28.49
2022-08-12T08:23:56.185Z,28.81
2022-08-12T08:26:27.265Z,28.79
2022-08-12T08:28:55.661Z,28.30
2022-08-12T08:31:23.443Z,28.69
2022-08-12T08:34:33.426Z,28.90
2022-08-12T08:37:07.701Z,29.04
2022-08-12T08:39:39.723Z,28.94
2022-08-12T08:42:27.207Z,28.95
2022-08-12T08:44:58.914Z,28.74
2022-08-12T08:47:27.160Z,28.94
2022-08-12T08:50:01.126Z,29.42
2022-08-12T08:52:39.684Z,29.60
2022-08-12T08:55:10.990Z,29.96
2022-08-12T08:57:44.181Z,29.72
2022-08-12T09:00:17.767Z,29.75
2022-08-12T09:02:49.039Z,29.71
2022-08-12T09:06:01.438Z,29.95
2022-08-12T09:08:26.724Z,30.24
2022-08-12T09:12:07.645Z,30.04
2022-08-12T09:14:18.631Z,30.24
2022-08-12T09:19:38.612Z,30.41
2022-08-12T09:22:08.797Z,30.29
2022-08-12T09:24:37.013Z,30.63
2022-08-12T09:27:08.319Z,30.64
2022-08-12T09:30:10.185Z,30.47
2022-08-12T09:33:04.733Z,30.64
2022-08-12T09:35:44.456Z,30.69
2022-08-12T09:38:35.533Z,30.81
2022-08-12T09:42:09.512Z,30.76
2022-08-12T09:44:39.492Z,31.16
2022-08-12T09:47:10.707Z,31.06
2022-08-12T09:49:58.843Z,31.27
2022-08-12T09:52:36.883Z,31.50
2022-08-12T09:55:57.299Z,31.64
2022-08-12T09:58:57.791Z,31.61
2022-08-12T10:01:06.546Z,31.30
2022-08-12T10:03:55.627Z,31.68
2022-08-12T10:06:54.273Z,31.97
2022-08-12T10:09:28.408Z,32.18
2022-08-12T10:12:40.347Z,32.32
2022-08-12T10:16:03.172Z,32.21
2022-08-12T10:18:19.658Z,31.66
2022-08-12T10:21:00.230Z,32.12
2022-08-12T10:23:58.640Z,32.41
2022-08-12T10:27:05.693Z,32.35
2022-08-12T10:30:37.842Z,32.73
2022-08-12T10:32:47.154Z,33.02
2022-08-12T10:35:37.947Z,32.74
2022-08-12T10:38:37.600Z,32.87
2022-08-12T10:41:19.148Z,32.81
2022-08-12T10:44:22.474Z,32.66
2022-08-12T10:47:01.891Z,33.09
2022-08-12T10:50:03.187Z,33.33
2022-08-12T10:52:41.576Z,33.30
2022-08-12T10:55:23.908Z,33.20
2022-08-12T10:58:27.726Z,32.93
2022-08-12T11:01:26.170Z,33.24
2022-08-12T11:04:27.052Z,33.47
2022-08-12T11:07:06.817Z,33.58
2022-08-12T11:09:51.295Z,33.93
2022-08-12T11:12:55.586Z,33.76
2022-08-12T11:14:59.362Z,33.74
2022-08-12T11:17:51.893Z,33.88
2022-08-12T11:20:32.617Z,33.96
2022-08-12T11:23:37.158Z,33.26
2022-08-12T11:34:05.906Z,32.46
2022-08-12T11:43:20.097Z,32.91
2022-08-12T11:45:53.233Z,33.18
2022-08-12T11:48:52.379Z,33.27
2022-08-12T11:51:26.089Z,33.80
2022-08-12T11:54:10.495Z,33.95
2022-08-12T11:57:00.272Z,34.05
2022-08-12T12:02:02.997Z,33.95
2022-08-12T12:02:26.755Z,34.08
2022-08-12T12:05:09.760Z,33.98
2022-08-12T12:08:38.612Z,34.12
2022-08-12T12:10:44.168Z,34.56
2022-08-12T12:14:08.401Z,34.37
2022-08-12T12:16:41.995Z,34.25
2022-08-12T12:19:22.418Z,34.51
2022-08-12T12:22:30.836Z,34.13
2022-08-12T12:25:14.039Z,34.58
2022-08-12T12:28:06.590Z,34.54
2022-08-12T12:30:54.895Z,34.43
2022-08-12T12:33:57.214Z,34.40
2022-08-12T12:36:29.942Z,34.07
2022-08-12T12:39:18.523Z,34.24
2022-08-12T12:42:53.591Z,34.22
2022-08-12T12:44:57.312Z,34.59
2022-08-12T12:47:30.027Z,34.43
2022-08-12T12:50:35.403Z,34.79
2022-08-12T12:53:09.869Z,34.65
2022-08-12T12:56:02.092Z,34.77
2022-08-12T12:58:30.439Z,35.16
2022-08-12T13:01:04.932Z,35.36
2022-08-12T13:03:56.506Z,34.99
2022-08-12T13:06:34.314Z,35.23
2022-08-12T13:09:04.355Z,35.08
2022-08-12T13:11:41.561Z,34.92
2022-08-12T13:14:29.483Z,34.70
2022-08-12T13:17:02.910Z,34.90
2022-08-12T13:19:37.829Z,34.61
2022-08-12T13:22:19.245Z,34.93
2022-08-12T13:25:04.312Z,35.05
2022-08-12T13:27:48.583Z,34.87
2022-08-12T13:30:33.738Z,34.84
2022-08-12T13:33:17.772Z,34.33
2022-08-12T13:36:05.957Z,34.68
2022-08-12T13:38:38.976Z,34.62
2022-08-12T13:41:36.147Z,34.66
2022-08-12T13:44:18.139Z,34.23
2022-08-12T13:47:02.130Z,34.36
2022-08-12T13:49:54.958Z,34.40
2022-08-12T13:52:31.321Z,34.26
2022-08-12T13:55:23.062Z,34.35
2022-08-12T13:58:05.379Z,34.27
2022-08-12T14:01:11.899Z,34.48
2022-08-12T14:03:54.833Z,34.33
2022-08-12T14:06:44.918Z,34.56
2022-08-12T14:09:29.537Z,34.26
2022-08-12T14:12:24.234Z,34.71
2022-08-12T14:15:03.540Z,34.88
2022-08-12T14:18:13.132Z,35.15
2022-08-12T14:21:00.852Z,34.69
2022-08-12T14:24:05.745Z,35.18
2022-08-12T14:26:34.133Z,35.18
2022-08-12T14:29:21.681Z,35.26
2022-08-12T14:32:16.866Z,35.12
2022-08-12T14:35:10.255Z,34.91
2022-08-12T14:37:59.124Z,34.90
2022-08-12T14:40:41.116Z,35.09
2022-08-12T14:43:25.789Z,34.95
2022-08-12T14:46:29.904Z,35.09
2022-08-12T14:49:27.552Z,35.29
2022-08-12T14:52:38.905Z,35.21
2022-08-12T14:58:05.091Z,35.34
2022-08-12T15:01:21.734Z,35.60
2022-08-12T15:04:02.476Z,35.14
2022-08-12T15:06:52.553Z,35.50
2022-08-12T15:09:29.598Z,35.56
2022-08-12T15:12:14.826Z,35.74
2022-08-12T15:14:46.559Z,35.35
2022-08-12T15:17:38.102Z,35.23
2022-08-12T15:20:37.802Z,35.52
2022-08-12T15:23:18.031Z,35.53
2022-08-12T15:26:21.176Z,35.59
2022-08-12T15:28:59.955Z,35.57
2022-08-12T15:32:02.120Z,35.74
2022-08-12T15:34:38.956Z,35.14
2022-08-12T15:38:09.387Z,35.04
2022-08-12T15:40:15.997Z,35.08
2022-08-12T15:43:12.488Z,34.95
2022-08-12T15:46:01.249Z,35.09
2022-08-12T15:48:32.888Z,35.06
2022-08-12T15:51:59.537Z,34.61
2022-08-12T15:54:44.849Z,34.75
2022-08-12T15:57:43.121Z,34.49
2022-08-12T16:00:38.291Z,34.40
2022-08-12T16:04:00.504Z,34.25
2022-08-12T16:07:00.571Z,34.45
2022-08-12T16:10:05.586Z,34.43
2022-08-12T16:12:39.728Z,34.59
2022-08-12T16:16:01.605Z,34.24
2022-08-12T16:18:38.468Z,34.39
2022-08-12T16:21:51.291Z,34.30
2022-08-12T16:24:26.312Z,34.12
2022-08-12T16:27:17.850Z,33.11
2022-08-12T16:30:06.067Z,33.09
2022-08-12T16:33:17.919Z,33.04
2022-08-12T16:36:06.370Z,32.82
2022-08-12T16:39:12.924Z,32.94
2022-08-12T16:42:00.881Z,32.99
2022-08-12T16:44:50.309Z,32.83
2022-08-12T16:47:19.664Z,32.52
2022-08-12T16:50:10.939Z,32.49
2022-08-12T16:52:47.944Z,32.53
2022-08-12T16:56:02.037Z,32.50
2022-08-12T16:58:52.086Z,32.39
2022-08-12T17:01:39.650Z,32.35
2022-08-12T17:04:20.903Z,32.36
2022-08-12T17:07:17.145Z,32.25
2022-08-12T17:09:50.541Z,32.04
2022-08-12T17:12:58.673Z,32.22
2022-08-12T17:15:56.912Z,32.36
2022-08-12T17:18:57.742Z,31.93
2022-08-12T17:21:59.338Z,32.20
2022-08-12T17:24:54.427Z,32.09
2022-08-12T17:27:31.062Z,32.28
2022-08-12T17:30:16.049Z,32.15
2022-08-12T17:33:06.973Z,32.19
2022-08-12T17:36:11.922Z,32.11
2022-08-12T17:38:50.789Z,32.08
2022-08-12T17:41:57.083Z,31.96
2022-08-12T17:44:12.237Z,31.83
2022-08-12T17:46:57.377Z,31.86
2022-08-12T17:50:03.042Z,31.95
2022-08-12T17:53:03.142Z,32.04
2022-08-12T17:55:50.811Z,31.95
2022-08-12T17:58:59.190Z,31.56
2022-08-12T18:01:47.021Z,31.50
2022-08-12T18:04:35.971Z,31.55
2022-08-12T18:07:06.224Z,31.43
2022-08-12T18:10:42.975Z,31.62
2022-08-12T18:13:40.830Z,31.51
2022-08-12T18:16:34.693Z,31.58
2022-08-12T18:19:13.189Z,31.43
2022-08-12T18:22:03.170Z,31.24
2022-08-12T18:24:31.385Z,31.09
2022-08-12T18:27:28.023Z,31.00
2022-08-12T18:30:08.913Z,31.00
2022-08-12T18:33:19.812Z,31.07
2022-08-12T18:35:53.772Z,31.04
2022-08-12T18:38:51.097Z,30.81
2022-08-12T18:41:34.264Z,30.64
2022-08-12T18:44:41.711Z,30.38
2022-08-12T18:47:13.448Z,30.50
2022-08-12T18:50:00.829Z,30.12
2022-08-12T18:52:33.880Z,30.42
2022-08-12T18:55:08.277Z,30.24
2022-08-12T18:58:07.507Z,30.20
2022-08-12T19:00:51.731Z,29.66
2022-08-12T19:03:23.503Z,29.76
2022-08-12T19:06:09.489Z,29.34
2022-08-12T19:08:57.572Z,29.65
2022-08-12T19:11:50.071Z,29.81
2022-08-12T19:14:40.400Z,29.65
2022-08-12T19:17:47.450Z,29.42
2022-08-12T19:20:21.679Z,29.57
2022-08-12T19:23:02.620Z,29.37
2022-08-12T19:26:00.572Z,29.09
2022-08-12T19:28:57.919Z,28.47
2022-08-12T19:31:58.973Z,28.64
2022-08-12T19:36:06.839Z,27.97
2022-08-12T19:38:06.462Z,28.49
2022-08-12T19:40:48.216Z,28.46
2022-08-12T19:43:21.070Z,28.63
2022-08-12T19:46:11.991Z,27.77
2022-08-12T19:48:44.816Z,28.00
2022-08-12T19:51:38.766Z,27.96
2022-08-12T19:54:27.152Z,28.04
2022-08-12T19:57:02.609Z,28.30
2022-08-12T19:59:43.538Z,27.83
2022-08-12T20:02:34.607Z,27.57
2022-08-12T20:06:05.723Z,27.46
2022-08-12T20:08:34.021Z,27.60
2022-08-12T20:12:13.517Z,27.47
2022-08-12T20:14:27.677Z,27.79
2022-08-12T20:17:05.515Z,27.69
2022-08-12T20:20:01.662Z,27.52
2022-08-12T20:22:45.845Z,27.34
2022-08-12T20:25:52.967Z,27.35
2022-08-12T20:28:40.687Z,27.34
2022-08-12T20:31:12.263Z,27.39
2022-08-12T20:33:56.514Z,27.26
2022-08-12T20:36:44.365Z,26.99
2022-08-12T20:39:52.867Z,27.03
2022-08-12T20:42:24.056Z,27.00
2022-08-12T20:45:40.006Z,26.88
2022-08-12T20:48:24.228Z,27.04
2022-08-12T20:51:19.184Z,26.91
2022-08-12T20:53:58.093Z,26.65
2022-08-12T20:56:34.763Z,26.43
2022-08-12T20:59:21.799Z,26.64
2022-08-12T21:02:30.774Z,26.44
2022-08-12T21:05:21.912Z,26.37
2022-08-12T21:07:52.386Z,26.44
2022-08-12T21:10:38.631Z,26.36
2022-08-12T21:13:27.102Z,26.52
2022-08-12T21:15:59.739Z,26.42
2022-08-12T21:18:50.739Z,26.50
2022-08-12T21:21:23.897Z,25.98
2022-08-12T21:24:32.370Z,26.12
2022-08-12T21:27:17.980Z,26.11
2022-08-12T21:30:06.849Z,26.23
2022-08-12T21:32:55.089Z,26.29
2022-08-12T21:35:26.586Z,26.29
2022-08-12T21:38:14.801Z,26.00
2022-08-12T21:41:23.572Z,26.11
2022-08-12T21:44:00.905Z,26.22
2022-08-12T21:46:53.388Z,26.36
2022-08-12T21:49:54.137Z,25.60
2022-08-12T21:52:28.240Z,25.95
2022-08-12T21:55:18.035Z,25.90
2022-08-12T21:58:11.763Z,25.84
2022-08-12T22:00:49.193Z,25.83
2022-08-12T22:04:16.490Z,25.77
2022-08-12T22:07:06.939Z,25.71
2022-08-12T22:10:00.192Z,25.63
2022-08-12T22:12:37.529Z,25.73
2022-08-12T22:15:31.180Z,25.64
2022-08-12T22:18:09.450Z,25.86
2022-08-12T22:21:03.673Z,26.11
2022-08-12T22:23:52.336Z,26.01
2022-08-12T22:26:43.253Z,26.15
2022-08-12T22:29:31.952Z,26.13
2022-08-12T22:32:26.291Z,26.12
2022-08-12T22:35:55.501Z,25.90
2022-08-12T22:38:35.483Z,25.90
2022-08-12T22:41:44.202Z,25.58
2022-08-12T22:44:55.263Z,25.42
2022-08-12T22:47:54.355Z,25.44
2022-08-12T22:50:46.543Z,25.06
2022-08-12T22:53:36.716Z,25.23
2022-08-12T22:56:47.112Z,24.98
2022-08-12T22:59:55.151Z,25.03
2022-08-12T23:02:31.179Z,24.72
2022-08-12T23:05:01.042Z,24.82
2022-08-12T23:07:59.936Z,24.96
2022-08-12T23:10:43.347Z,24.90
2022-08-12T23:13:57.381Z,24.94
2022-08-12T23:16:41.355Z,24.77
2022-08-12T23:19:38.407Z,24.86
2022-08-12T23:22:36.326Z,24.96
2022-08-12T23:25:19.131Z,25.15
2022-08-12T23:28:29.537Z,25.04
2022-08-12T23:31:30.442Z,25.49
2022-08-12T23:34:18.485Z,25.35
2022-08-12T23:37:08.602Z,25.22
2022-08-12T23:40:14.753Z,25.07
2022-08-12T23:42:51.159Z,25.10
2022-08-12T23:45:41.170Z,25.18
2022-08-12T23:48:57.294Z,25.30
2022-08-12T23:51:46.160Z,25.52
2022-08-12T23:54:58.522Z,25.59
2022-08-12T23:58:17.878Z,25.63
